Time;durP1;ratioP1;P1;durP2;ratioP2;P2;SDS_P1;SDS_P2;PMS_P1;PMS_P2;Temp;Humidity;BMP_temperature;BMP_pressure;BME280_temperature;BME280_humidity;BME280_pressure;Samples;Min_cycle;Max_cycle;Signal;HPM_P1;HPM_P2
2022/06/05 00:00:17;;;;;;;11.02;9.05;;;16.90;98.00;;;;;;5013111;28;20034;-84
2022/06/05 00:03:08;;;;;;;10.98;9.23;;;16.90;98.00;;;;;;5011496;28;20433;-83
2022/06/05 00:05:44;;;;;;;11.20;8.68;;;16.90;98.10;;;;;;5027669;28;20022;-84
2022/06/05 00:08:37;;;;;;;14.00;8.77;;;16.90;98.00;;;;;;5013259;28;20030;-84
2022/06/05 00:11:03;;;;;;;10.30;8.85;;;16.80;97.90;;;;;;5012462;28;20073;-83
2022/06/05 00:13:48;;;;;;;10.90;8.77;;;16.80;97.90;;;;;;5028201;28;20057;-84
2022/06/05 00:16:15;;;;;;;14.23;9.98;;;16.80;98.00;;;;;;5010645;28;20026;-84
2022/06/05 00:18:42;;;;;;;12.50;8.88;;;16.70;98.00;;;;;;5028010;28;20030;-84
2022/06/05 00:21:08;;;;;;;12.93;8.57;;;16.70;98.00;;;;;;5011292;28;20355;-83
2022/06/05 00:23:34;;;;;;;11.02;8.98;;;16.70;98.10;;;;;;5012780;28;20030;-83
2022/06/05 00:26:24;;;;;;;11.15;9.23;;;16.60;98.10;;;;;;5012433;28;20489;-85
2022/06/05 00:29:03;;;;;;;12.73;9.50;;;16.60;98.20;;;;;;5011825;28;20084;-84
2022/06/05 00:31:58;;;;;;;11.27;9.82;;;16.60;98.30;;;;;;5013153;28;20473;-84
2022/06/05 00:34:24;;;;;;;10.75;9.50;;;16.50;98.30;;;;;;5011258;28;20065;-84
2022/06/05 00:37:11;;;;;;;10.98;9.48;;;16.50;98.30;;;;;;5010749;28;20247;-85
2022/06/05 00:39:51;;;;;;;12.85;10.73;;;16.50;98.50;;;;;;5027804;28;20034;-83
2022/06/05 00:42:21;;;;;;;11.63;9.82;;;16.50;98.50;;;;;;5012243;28;20111;-84
2022/06/05 00:44:50;;;;;;;12.48;10.07;;;16.40;98.50;;;;;;5010913;28;20030;-84
2022/06/05 00:47:19;;;;;;;13.13;9.35;;;16.40;98.60;;;;;;5012047;28;20034;-85
2022/06/05 00:50:11;;;;;;;10.85;9.02;;;16.40;98.60;;;;;;5010866;28;20479;-84
2022/06/05 00:52:46;;;;;;;9.85;8.32;;;16.40;98.60;;;;;;5027817;28;20479;-84
2022/06/05 00:55:14;;;;;;;9.95;8.50;;;16.30;98.50;;;;;;5012304;28;20556;-84
2022/06/05 00:57:40;;;;;;;9.65;7.80;;;16.40;98.50;;;;;;5011044;28;20026;-84
2022/06/05 01:00:12;;;;;;;9.35;8.32;;;16.30;98.40;;;;;;5027964;28;20049;-83
2022/06/05 01:02:39;;;;;;;11.48;7.95;;;16.30;98.40;;;;;;5010471;28;20025;-84
2022/06/05 01:05:08;;;;;;;7.38;6.68;;;16.30;98.50;;;;;;5011419;28;20040;-84
2022/06/05 01:07:33;;;;;;;7.80;7.00;;;16.20;98.30;;;;;;5010251;28;20022;-84
2022/06/05 01:09:59;;;;;;;8.05;7.18;;;16.30;98.30;;;;;;5010685;28;20040;-83
2022/06/05 01:12:44;;;;;;;11.68;7.40;;;16.30;98.20;;;;;;5010514;28;20064;-84
2022/06/05 01:15:26;;;;;;;8.68;7.32;;;16.30;98.20;;;;;;5010665;28;20022;-83
2022/06/05 01:18:24;;;;;;;8.30;7.38;;;16.30;98.10;;;;;;5010852;28;20340;-85
2022/06/05 01:21:07;;;;;;;9.38;6.50;;;16.30;98.10;;;;;;5010743;28;20037;-84
2022/06/05 01:23:50;;;;;;;6.70;6.10;;;16.30;98.00;;;;;;5012528;28;20030;-83
2022/06/05 01:26:27;;;;;;;8.45;6.30;;;16.30;98.00;;;;;;5026321;28;20026;-84
2022/06/05 01:29:05;;;;;;;6.72;6.05;;;16.20;97.90;;;;;;5010672;28;20034;-83
2022/06/05 01:31:50;;;;;;;9.30;6.68;;;16.30;98.00;;;;;;5026630;28;20041;-83
2022/06/05 01:34:42;;;;;;;9.73;6.28;;;16.30;97.90;;;;;;5026560;28;20033;-83
2022/06/05 01:37:24;;;;;;;10.45;6.32;;;16.30;97.90;;;;;;5009744;28;20474;-83
2022/06/05 01:40:13;;;;;;;7.15;6.45;;;16.30;98.00;;;;;;5010249;28;20038;-83
2022/06/05 01:42:43;;;;;;;8.00;6.85;;;16.20;97.90;;;;;;5010221;28;20034;-83
2022/06/05 01:45:23;;;;;;;8.98;6.45;;;16.20;98.00;;;;;;5010664;28;20026;-83
2022/06/05 01:47:53;;;;;;;6.82;6.13;;;16.20;97.80;;;;;;5010555;28;20141;-83
2022/06/05 01:50:41;;;;;;;7.32;6.63;;;16.20;97.90;;;;;;5010683;28;20087;-83
2022/06/05 01:53:19;;;;;;;7.47;6.22;;;16.20;97.90;;;;;;5010542;28;20042;-83
2022/06/05 01:56:00;;;;;;;8.93;6.43;;;16.20;97.90;;;;;;5009720;28;20113;-83
2022/06/05 01:58:35;;;;;;;9.38;6.18;;;16.20;97.90;;;;;;5027057;28;20030;-83
2022/06/05 02:01:15;;;;;;;7.20;5.93;;;16.20;97.90;;;;;;5010757;28;20141;-84
2022/06/05 02:03:50;;;;;;;6.95;6.25;;;16.20;97.80;;;;;;5011339;28;20088;-84
2022/06/05 02:06:21;;;;;;;6.00;5.50;;;16.20;97.70;;;;;;5008992;28;20038;-84
2022/06/05 02:08:51;;;;;;;7.10;6.32;;;16.20;97.70;;;;;;5009598;28;20030;-82
2022/06/05 02:11:26;;;;;;;7.43;5.50;;;16.30;97.90;;;;;;5006244;28;20716;-83
2022/06/05 02:13:58;;;;;;;6.65;5.97;;;16.20;97.60;;;;;;5010931;28;20152;-83
2022/06/05 02:16:25;;;;;;;7.20;6.00;;;16.20;97.70;;;;;;5010894;28;20562;-83
2022/06/05 02:18:52;;;;;;;7.88;6.40;;;16.20;97.70;;;;;;5009925;28;20034;-83
2022/06/05 02:21:18;;;;;;;8.27;6.07;;;16.20;97.70;;;;;;5010865;28;20045;-83
2022/06/05 02:23:44;;;;;;;9.55;5.97;;;16.10;97.70;;;;;;5009699;28;20037;-84
2022/06/05 02:26:10;;;;;;;7.18;5.88;;;16.10;97.70;;;;;;5010819;28;20133;-83
2022/06/05 02:28:37;;;;;;;7.75;6.28;;;16.10;97.70;;;;;;5009597;28;20040;-83
2022/06/05 02:31:37;;;;;;;6.00;5.40;;;16.10;97.70;;;;;;5009164;28;20034;-83
2022/06/05 02:34:19;;;;;;;8.27;6.10;;;16.10;97.70;;;;;;5009272;28;20034;-83
2022/06/05 02:37:03;;;;;;;8.40;5.57;;;16.10;97.70;;;;;;5009013;28;20034;-83
2022/06/05 02:39:46;;;;;;;7.15;6.03;;;16.00;97.70;;;;;;5027110;28;20036;-83
2022/06/05 02:42:26;;;;;;;11.75;6.68;;;16.00;97.70;;;;;;5014689;28;20030;-84
2022/06/05 02:45:24;;;;;;;9.25;6.20;;;16.00;97.70;;;;;;5029448;28;20030;-83
2022/06/05 02:48:08;;;;;;;6.75;6.05;;;16.00;97.80;;;;;;5006944;28;20291;-84
2022/06/05 02:50:47;;;;;;;7.90;5.63;;;15.90;97.70;;;;;;5012923;28;20026;-85
2022/06/05 02:53:14;;;;;;;7.72;5.32;;;15.90;97.70;;;;;;5014631;28;20565;-83
2022/06/05 02:55:40;;;;;;;10.18;6.25;;;15.90;97.80;;;;;;5013556;28;20090;-83
2022/06/05 02:58:06;;;;;;;8.52;5.97;;;15.90;97.90;;;;;;5013108;28;20141;-83
2022/06/05 03:00:35;;;;;;;7.47;6.15;;;15.90;97.90;;;;;;5014504;28;20045;-83
2022/06/05 03:05:45;;;;;;;9.50;5.82;;;15.80;97.90;;;;;;5013624;28;20049;-83
2022/06/05 03:08:13;;;;;;;7.10;6.30;;;15.80;97.90;;;;;;5014006;28;20545;-83
2022/06/05 03:10:40;;;;;;;11.38;6.20;;;15.80;97.90;;;;;;5014117;28;20030;-83
2022/06/05 03:13:05;;;;;;;7.53;5.47;;;15.80;97.80;;;;;;5013842;28;20033;-82
2022/06/05 03:15:31;;;;;;;6.47;5.50;;;15.80;97.80;;;;;;5013189;28;20033;-84
2022/06/05 03:17:57;;;;;;;6.25;5.65;;;15.80;97.90;;;;;;5013890;28;20022;-83
2022/06/05 03:20:23;;;;;;;5.55;4.72;;;15.80;97.90;;;;;;5013878;28;20053;-84
2022/06/05 03:22:50;;;;;;;6.25;4.95;;;15.70;97.90;;;;;;5012143;28;20026;-84
2022/06/05 03:25:18;;;;;;;5.80;4.82;;;15.70;97.90;;;;;;5013434;28;20034;-83
2022/06/05 03:27:44;;;;;;;6.45;5.07;;;15.80;98.00;;;;;;5011681;28;20033;-83
2022/06/05 03:30:10;;;;;;;6.32;5.20;;;15.70;98.00;;;;;;5013763;28;20036;-83
2022/06/05 03:32:36;;;;;;;10.05;4.82;;;15.70;98.10;;;;;;5013370;28;20442;-85
2022/06/05 03:35:01;;;;;;;5.70;5.00;;;15.70;98.10;;;;;;5013665;28;20038;-83
2022/06/05 03:37:27;;;;;;;9.38;5.72;;;15.70;98.10;;;;;;5012820;28;20022;-83
2022/06/05 03:39:52;;;;;;;6.18;5.57;;;15.70;98.10;;;;;;5028544;28;20080;-84
2022/06/05 03:42:18;;;;;;;5.75;5.15;;;15.70;98.10;;;;;;5013043;28;20527;-83
2022/06/05 03:44:44;;;;;;;7.20;5.03;;;15.70;98.00;;;;;;5012230;28;20121;-83
2022/06/05 03:47:10;;;;;;;6.93;4.40;;;15.70;98.20;;;;;;5012804;28;20105;-83
2022/06/05 03:49:36;;;;;;;8.73;4.63;;;15.70;97.90;;;;;;5012112;28;20109;-84
2022/06/05 03:52:04;;;;;;;8.13;5.05;;;15.70;97.80;;;;;;5012430;28;20054;-83
2022/06/05 03:54:30;;;;;;;7.18;4.45;;;15.70;97.80;;;;;;5011942;28;20083;-83
2022/06/05 03:56:56;;;;;;;5.13;4.63;;;15.70;97.80;;;;;;5011235;28;20483;-85
2022/06/05 03:59:21;;;;;;;5.55;4.25;;;15.70;97.70;;;;;;5012978;28;20425;-83
2022/06/05 04:01:47;;;;;;;7.15;4.28;;;15.70;97.70;;;;;;5027863;28;20032;-83
2022/06/05 04:04:12;;;;;;;4.88;4.18;;;15.70;97.60;;;;;;5013021;28;20025;-83
2022/06/05 04:06:38;;;;;;;3.75;3.33;;;15.80;97.40;;;;;;5013043;28;20409;-84
2022/06/05 04:09:06;;;;;;;8.60;4.35;;;15.80;97.50;;;;;;5013469;28;20022;-83
2022/06/05 04:11:33;;;;;;;4.47;4.03;;;15.80;97.40;;;;;;5012183;28;20119;-83
2022/06/05 04:13:59;;;;;;;7.72;4.18;;;15.80;97.30;;;;;;5014815;28;20045;-82
2022/06/05 04:16:30;;;;;;;4.90;3.95;;;15.80;97.40;;;;;;5032460;28;20030;-84
2022/06/05 04:18:57;;;;;;;5.57;4.97;;;15.80;97.40;;;;;;5041623;28;20030;-83
2022/06/05 04:21:26;;;;;;;5.93;3.90;;;15.90;97.50;;;;;;5025996;28;20491;-83
2022/06/05 04:23:52;;;;;;;7.93;4.05;;;15.90;97.30;;;;;;5026957;28;20040;-83
2022/06/05 04:26:21;;;;;;;5.55;4.50;;;16.00;97.20;;;;;;5027521;28;20049;-84
2022/06/05 04:28:47;;;;;;;7.60;3.50;;;16.00;97.20;;;;;;5017025;28;20142;-83
2022/06/05 04:31:34;;;;;;;4.68;3.88;;;16.00;97.20;;;;;;5018251;28;20041;-83
2022/06/05 04:34:03;;;;;;;5.75;3.97;;;16.00;97.30;;;;;;5013085;28;20034;-83
2022/06/05 04:36:29;;;;;;;5.22;4.20;;;16.10;97.30;;;;;;5012537;28;20022;-83
2022/06/05 04:38:54;;;;;;;13.75;4.50;;;16.10;97.20;;;;;;5014414;28;20122;-84
2022/06/05 04:41:20;;;;;;;4.55;3.53;;;16.20;97.30;;;;;;5028960;28;20121;-83
2022/06/05 04:43:47;;;;;;;4.15;3.70;;;16.20;97.20;;;;;;5011653;28;20037;-83
2022/06/05 04:46:13;;;;;;;5.35;3.88;;;16.20;96.90;;;;;;5011171;28;20120;-83
2022/06/05 04:48:39;;;;;;;4.65;3.50;;;16.20;96.80;;;;;;5013254;28;20788;-83
2022/06/05 04:51:06;;;;;;;4.82;3.80;;;16.30;96.90;;;;;;5011839;28;20026;-83
2022/06/05 04:53:31;;;;;;;5.45;3.55;;;16.40;96.90;;;;;;5012915;28;20603;-82
2022/06/05 04:55:57;;;;;;;4.97;3.95;;;16.40;97.00;;;;;;5011113;28;20022;-86
2022/06/05 04:58:22;;;;;;;4.35;3.88;;;16.40;97.10;;;;;;5013360;28;20033;-82
2022/06/05 05:00:48;;;;;;;6.03;3.72;;;16.40;97.00;;;;;;5011866;28;20042;-83
2022/06/05 05:03:13;;;;;;;7.75;4.60;;;16.50;96.90;;;;;;5012330;28;20033;-82
2022/06/05 05:05:39;;;;;;;4.60;4.10;;;16.50;96.90;;;;;;5028767;28;20431;-85
2022/06/05 05:08:04;;;;;;;6.10;4.40;;;16.50;96.70;;;;;;5028798;28;20120;-82
2022/06/05 05:10:30;;;;;;;4.25;3.80;;;16.50;96.90;;;;;;5011692;28;20080;-82
2022/06/05 05:12:55;;;;;;;5.57;3.97;;;16.60;97.00;;;;;;5027759;28;20515;-84
2022/06/05 05:15:21;;;;;;;7.07;4.22;;;16.70;96.80;;;;;;5027625;28;20033;-82
2022/06/05 05:17:47;;;;;;;6.22;3.80;;;16.60;96.60;;;;;;5011547;28;20030;-83
2022/06/05 05:20:13;;;;;;;7.25;3.70;;;16.70;96.90;;;;;;5013067;28;20382;-83
2022/06/05 05:22:39;;;;;;;9.45;4.72;;;16.70;96.50;;;;;;5027562;28;20119;-83
2022/06/05 05:25:06;;;;;;;4.25;3.67;;;16.80;96.60;;;;;;5011004;28;20061;-83
2022/06/05 05:27:33;;;;;;;5.50;4.20;;;16.90;96.70;;;;;;5027216;28;20029;-83
2022/06/05 05:29:59;;;;;;;5.97;4.95;;;16.90;96.80;;;;;;5027541;28;20073;-84
2022/06/05 05:32:24;;;;;;;5.70;4.57;;;16.90;96.50;;;;;;5011087;28;20030;-82
2022/06/05 05:34:50;;;;;;;5.18;4.13;;;17.10;96.70;;;;;;5012057;28;20335;-83
2022/06/05 05:37:15;;;;;;;4.13;3.80;;;17.10;96.70;;;;;;5011835;28;20061;-83
2022/06/05 05:42:25;;;;;;;6.70;4.32;;;17.20;96.30;;;;;;5012752;28;20064;-83
2022/06/05 05:44:51;;;;;;;6.13;4.63;;;17.20;96.50;;;;;;5011005;28;20454;-83
2022/06/05 05:47:20;;;;;;;6.07;4.50;;;17.30;96.60;;;;;;5011395;28;20052;-85
2022/06/05 05:49:45;;;;;;;8.63;4.75;;;17.40;96.40;;;;;;5010479;28;20111;-83
2022/06/05 05:52:12;;;;;;;6.22;3.85;;;17.50;96.50;;;;;;5012210;28;20478;-83
2022/06/05 05:54:38;;;;;;;6.05;4.35;;;17.50;96.20;;;;;;5010374;28;20029;-83
2022/06/05 05:57:05;;;;;;;4.28;3.88;;;17.60;96.20;;;;;;5011033;28;20030;-82
2022/06/05 05:59:31;;;;;;;5.35;4.75;;;17.70;96.20;;;;;;5026987;28;20111;-84
2022/06/05 06:01:57;;;;;;;4.30;3.90;;;17.80;96.30;;;;;;5010040;28;20084;-85
2022/06/05 06:04:22;;;;;;;5.30;4.55;;;17.90;96.20;;;;;;5026847;28;20070;-84
2022/06/05 06:06:51;;;;;;;7.18;4.63;;;18.00;95.90;;;;;;5011142;28;20152;-82
2022/06/05 06:09:18;;;;;;;6.00;4.45;;;18.10;95.80;;;;;;5010247;28;20033;-83
2022/06/05 06:11:43;;;;;;;5.90;4.47;;;18.10;95.70;;;;;;5010819;28;20481;-83
2022/06/05 06:14:09;;;;;;;4.97;4.38;;;18.30;96.00;;;;;;5013171;28;20022;-83
2022/06/05 06:16:35;;;;;;;6.07;4.70;;;18.40;96.00;;;;;;5016142;28;20026;-83
2022/06/05 06:19:01;;;;;;;6.38;4.43;;;18.50;95.90;;;;;;5016672;28;20502;-83
2022/06/05 06:21:27;;;;;;;8.25;5.00;;;18.60;95.60;;;;;;5016250;28;20034;-83
2022/06/05 06:23:52;;;;;;;5.43;4.63;;;18.70;95.60;;;;;;5017828;28;20096;-82
2022/06/05 06:26:18;;;;;;;5.45;4.50;;;18.80;95.00;;;;;;5017671;28;20030;-82
2022/06/05 06:28:43;;;;;;;7.30;4.72;;;18.90;95.10;;;;;;5016631;28;20026;-82
2022/06/05 06:31:12;;;;;;;8.50;4.15;;;19.00;95.30;;;;;;5016018;28;20033;-83
2022/06/05 06:33:39;;;;;;;5.70;4.80;;;19.10;95.20;;;;;;5017804;28;20118;-83
2022/06/05 06:36:08;;;;;;;7.15;4.57;;;19.20;95.10;;;;;;5015848;28;20030;-83
2022/06/05 06:38:33;;;;;;;7.95;4.57;;;19.30;95.30;;;;;;5017592;28;20061;-83
2022/06/05 06:41:05;;;;;;;7.03;4.50;;;19.40;94.90;;;;;;5017886;28;20030;-83
2022/06/05 06:43:32;;;;;;;5.88;4.82;;;19.60;94.70;;;;;;5015851;28;20522;-82
2022/06/05 06:45:58;;;;;;;5.18;4.68;;;19.70;94.40;;;;;;5017138;28;20037;-83
2022/06/05 06:48:25;;;;;;;8.73;5.85;;;19.80;94.20;;;;;;5017852;28;20075;-83
2022/06/05 06:50:53;;;;;;;4.85;4.32;;;19.90;94.50;;;;;;5015912;28;20251;-84
2022/06/05 06:53:18;;;;;;;6.65;4.95;;;20.10;94.20;;;;;;5017899;28;20026;-83
2022/06/05 06:55:44;;;;;;;6.93;4.93;;;20.20;94.10;;;;;;5017018;28;20033;-83
2022/06/05 06:58:10;;;;;;;5.60;5.00;;;20.30;93.60;;;;;;5017569;28;20549;-83
2022/06/05 07:00:35;;;;;;;7.90;4.65;;;20.40;93.70;;;;;;5017270;28;20473;-83
2022/06/05 07:03:01;;;;;;;6.30;5.15;;;20.60;93.80;;;;;;5017161;28;20038;-83
2022/06/05 07:05:26;;;;;;;5.90;5.30;;;20.70;93.70;;;;;;5032233;28;20085;-83
2022/06/05 07:07:52;;;;;;;7.28;4.85;;;20.80;93.40;;;;;;5017296;28;20108;-83
2022/06/05 07:10:17;;;;;;;5.85;5.25;;;20.90;93.50;;;;;;5015956;28;20128;-83
2022/06/05 07:12:43;;;;;;;5.75;5.07;;;20.90;93.50;;;;;;5015549;28;20037;-84
2022/06/05 07:15:09;;;;;;;6.85;5.13;;;21.10;93.40;;;;;;5032147;28;20072;-82
2022/06/05 07:17:35;;;;;;;5.63;5.13;;;21.30;93.30;;;;;;5016831;28;20034;-83
2022/06/05 07:20:00;;;;;;;5.97;5.38;;;21.40;93.40;;;;;;5015539;28;20057;-83
2022/06/05 07:22:26;;;;;;;6.22;5.28;;;21.60;93.00;;;;;;5015727;28;20391;-82
2022/06/05 07:24:52;;;;;;;8.50;5.30;;;21.60;92.60;;;;;;5017223;28;20030;-83
2022/06/05 07:27:18;;;;;;;7.75;5.13;;;21.80;92.60;;;;;;5012253;28;20057;-83
2022/06/05 07:29:43;;;;;;;6.65;5.43;;;21.80;92.50;;;;;;5012718;28;20028;-83
2022/06/05 07:32:11;;;;;;;6.10;5.50;;;22.10;93.00;;;;;;5011970;28;20037;-84
2022/06/05 07:34:37;;;;;;;5.63;4.97;;;22.20;93.00;;;;;;5013790;28;20056;-83
2022/06/05 07:37:03;;;;;;;6.60;5.38;;;22.40;93.40;;;;;;5011678;28;20462;-83
2022/06/05 07:39:29;;;;;;;5.90;5.25;;;22.60;92.10;;;;;;5029274;28;20470;-83
2022/06/05 07:41:58;;;;;;;5.45;4.95;;;22.70;91.60;;;;;;5013009;28;20025;-83
2022/06/05 07:44:27;;;;;;;7.00;4.90;;;22.90;92.10;;;;;;5012887;28;20033;-84
2022/06/05 07:46:53;;;;;;;5.68;5.10;;;23.20;91.90;;;;;;5012579;28;20036;-83
2022/06/05 07:49:19;;;;;;;5.22;4.65;;;23.40;91.40;;;;;;5012099;28;20017;-83
2022/06/05 07:54:34;;;;;;;5.43;4.75;;;23.70;90.60;;;;;;5013816;28;20040;-83
2022/06/05 07:57:06;;;;;;;7.60;4.85;;;23.90;90.50;;;;;;5012607;28;20033;-84
2022/06/05 07:59:34;;;;;;;6.10;5.10;;;23.90;90.30;;;;;;5028802;28;20449;-82
2022/06/05 08:02:04;;;;;;;9.52;4.95;;;24.00;90.30;;;;;;5010813;28;20065;-83
2022/06/05 08:04:31;;;;;;;5.38;4.88;;;24.10;89.80;;;;;;4992446;28;20054;-83
2022/06/05 08:06:59;;;;;;;4.93;4.53;;;24.10;90.00;;;;;;4991609;28;20027;-83
2022/06/05 08:09:26;;;;;;;6.95;4.32;;;24.20;89.60;;;;;;4992224;28;20031;-83
2022/06/05 08:11:51;;;;;;;5.55;5.00;;;24.10;90.20;;;;;;4991489;28;20370;-82
2022/06/05 08:14:17;;;;;;;7.10;4.78;;;24.30;90.10;;;;;;4992402;28;20042;-84
2022/06/05 08:16:44;;;;;;;6.90;4.45;;;24.40;89.70;;;;;;4992859;28;20030;-84
2022/06/05 08:19:11;;;;;;;5.45;4.28;;;24.50;88.70;;;;;;4993528;28;20022;-84
2022/06/05 08:21:38;;;;;;;5.80;4.80;;;24.70;88.60;;;;;;4991940;28;20479;-83
2022/06/05 08:24:04;;;;;;;4.72;4.32;;;24.80;87.10;;;;;;4991715;28;20027;-83
2022/06/05 08:26:30;;;;;;;5.20;4.57;;;24.80;89.30;;;;;;4991437;28;20083;-84
2022/06/05 08:28:55;;;;;;;5.82;4.32;;;24.90;89.70;;;;;;4992800;28;20026;-83
2022/06/05 08:31:21;;;;;;;5.32;4.00;;;25.00;86.00;;;;;;4993126;28;20100;-83
2022/06/05 08:33:46;;;;;;;4.50;4.10;;;25.10;85.70;;;;;;4992941;28;20042;-83
2022/06/05 08:36:12;;;;;;;4.82;4.40;;;25.20;87.50;;;;;;4991556;28;20033;-83
2022/06/05 08:41:28;;;;;;;5.47;3.58;;;25.50;86.70;;;;;;4993345;28;20045;-82
2022/06/05 08:44:23;;;;;;;5.27;3.70;;;25.70;86.00;;;;;;4993422;28;20058;-85
2022/06/05 08:47:20;;;;;;;4.72;3.70;;;25.80;85.00;;;;;;4993002;28;20368;-83
2022/06/05 08:50:11;;;;;;;3.17;2.83;;;26.00;83.60;;;;;;4991884;28;20057;-83
2022/06/05 08:53:04;;;;;;;3.85;3.42;;;26.00;85.30;;;;;;4993413;28;20057;-83
2022/06/05 08:55:52;;;;;;;5.95;3.58;;;26.00;83.50;;;;;;4991083;28;20026;-85
2022/06/05 08:58:40;;;;;;;3.60;3.30;;;26.10;84.00;;;;;;5008333;28;20121;-84
2022/06/05 09:01:37;;;;;;;4.22;3.55;;;26.10;84.30;;;;;;5007906;28;20479;-84
2022/06/05 09:04:17;;;;;;;3.47;3.17;;;26.30;83.70;;;;;;4993432;28;20034;-84
2022/06/05 09:06:49;;;;;;;4.28;3.88;;;26.40;82.90;;;;;;4991765;28;20493;-83
2022/06/05 09:09:18;;;;;;;;;;;26.60;82.80;;;;;;4993554;28;20116;-83
2022/06/05 09:11:56;;;;;;;4.43;3.53;;;26.70;80.50;;;;;;5008798;28;19910;-83
2022/06/05 09:14:38;;;;;;;4.20;3.17;;;26.70;82.10;;;;;;4995621;28;20034;-83
2022/06/05 09:17:15;;;;;;;3.78;2.72;;;26.90;80.60;;;;;;4995535;28;20033;-83
2022/06/05 09:19:42;;;;;;;4.32;3.53;;;27.00;82.50;;;;;;5003632;28;20033;-82
2022/06/05 09:22:27;;;;;;;6.22;3.70;;;27.00;81.90;;;;;;5005040;28;20026;-83
2022/06/05 09:25:33;;;;;;;4.55;4.13;;;27.00;81.80;;;;;;4993901;28;20506;-84
2022/06/05 09:28:26;;;;;;;5.25;3.13;;;27.00;81.20;;;;;;4991762;28;20054;-84
2022/06/05 09:31:17;;;;;;;5.60;3.40;;;27.20;80.50;;;;;;5007176;28;20141;-85
2022/06/05 09:33:44;;;;;;;3.47;3.15;;;27.30;79.40;;;;;;4992616;28;20030;-86
2022/06/05 09:36:15;;;;;;;5.32;3.28;;;27.50;80.40;;;;;;4990341;28;20028;-83
2022/06/05 09:38:45;;;;;;;4.90;3.20;;;27.40;78.90;;;;;;4992162;28;20026;-86
2022/06/05 09:41:22;;;;;;;3.78;3.38;;;27.50;81.20;;;;;;4991885;28;20036;-83
2022/06/05 09:44:14;;;;;;;4.25;3.03;;;27.40;79.00;;;;;;5006983;28;20057;-86
2022/06/05 09:46:59;;;;;;;3.70;3.38;;;27.40;79.60;;;;;;4990493;28;20033;-85
2022/06/05 09:49:44;;;;;;;3.75;3.40;;;27.50;80.30;;;;;;5007013;28;20034;-85
2022/06/05 09:52:16;;;;;;;3.83;3.13;;;27.60;78.00;;;;;;5006758;28;20037;-85
2022/06/05 09:54:49;;;;;;;4.20;3.70;;;27.60;80.00;;;;;;5007586;28;20034;-85
2022/06/05 10:00:43;;;;;;;3.75;3.05;;;27.70;82.30;;;;;;4992216;28;20046;-85
2022/06/05 10:03:20;;;;;;;5.75;3.58;;;27.90;80.80;;;;;;4991942;28;20026;-86
2022/06/05 10:06:07;;;;;;;4.50;3.28;;;27.90;82.20;;;;;;4989713;28;20474;-83
2022/06/05 10:08:41;;;;;;;4.68;3.53;;;28.10;81.40;;;;;;5006814;28;20057;-83
2022/06/05 10:11:36;;;;;;;4.53;3.58;;;28.10;79.20;;;;;;5006739;28;20121;-85
2022/06/05 10:14:20;;;;;;;3.97;3.58;;;28.10;80.60;;;;;;5006908;28;20049;-85
2022/06/05 10:17:05;;;;;;;4.13;3.72;;;28.20;78.60;;;;;;4991097;28;20026;-87
2022/06/05 10:19:52;;;;;;;5.25;3.17;;;28.30;81.20;;;;;;5006855;28;20065;-85
2022/06/05 10:22:41;;;;;;;5.60;3.15;;;28.30;79.40;;;;;;4991891;28;20034;-85
2022/06/05 10:25:25;;;;;;;4.10;3.10;;;28.40;78.10;;;;;;4991427;28;20041;-85
2022/06/05 10:27:54;;;;;;;5.18;3.88;;;28.50;78.80;;;;;;4991831;28;20387;-86
2022/06/05 10:30:23;;;;;;;8.32;3.60;;;28.70;78.90;;;;;;4990158;28;20033;-85
2022/06/05 10:33:24;;;;;;;4.25;3.85;;;28.80;77.60;;;;;;5006438;28;20121;-83
2022/06/05 10:36:06;;;;;;;5.30;3.13;;;28.90;74.50;;;;;;4989710;28;20097;-85
2022/06/05 10:39:00;;;;;;;3.72;3.42;;;29.10;78.10;;;;;;5006816;28;20034;-82
2022/06/05 10:41:36;;;;;;;2.90;2.60;;;29.20;77.40;;;;;;4991401;28;20031;-85
2022/06/05 10:44:27;;;;;;;4.28;2.90;;;29.40;77.80;;;;;;5006325;28;20399;-85
2022/06/05 10:47:27;;;;;;;3.28;2.97;;;29.40;75.30;;;;;;4990427;28;20050;-85
2022/06/05 10:50:08;;;;;;;4.18;3.20;;;29.60;74.70;;;;;;4991063;28;20023;-85
2022/06/05 10:52:59;;;;;;;4.05;3.25;;;29.60;75.70;;;;;;4990834;28;20034;-85
2022/06/05 10:55:34;;;;;;;3.53;2.92;;;29.70;74.10;;;;;;4990412;28;20403;-85
2022/06/05 10:58:25;;;;;;;3.63;3.10;;;29.80;76.10;;;;;;4989653;28;20069;-85
2022/06/05 11:01:05;;;;;;;4.17;3.43;;;29.90;78.50;;;;;;4989522;28;20082;-86
2022/06/05 11:04:11;;;;;;;4.32;3.20;;;30.00;75.10;;;;;;4994647;28;20050;-85
2022/06/05 11:07:06;;;;;;;2.95;2.65;;;30.00;76.90;;;;;;4994273;28;20523;-86
2022/06/05 11:09:57;;;;;;;3.33;3.00;;;30.10;71.70;;;;;;4994567;28;20486;-85
2022/06/05 11:15:24;;;;;;;3.17;2.88;;;30.00;74.40;;;;;;4994080;28;20034;-85
2022/06/05 11:18:17;;;;;;;4.00;2.88;;;29.90;72.80;;;;;;4993950;28;20023;-86
2022/06/05 11:20:55;;;;;;;3.15;2.75;;;29.90;75.30;;;;;;4992795;28;20034;-84
2022/06/05 11:23:26;;;;;;;2.22;2.03;;;30.00;73.50;;;;;;5009527;28;20098;-83
2022/06/05 11:25:59;;;;;;;9.27;2.88;;;30.00;71.10;;;;;;5008279;28;20549;-84
2022/06/05 11:29:02;;;;;;;2.47;2.28;;;30.10;73.20;;;;;;4994074;28;20033;-84
2022/06/05 11:31:56;;;;;;;5.07;2.33;;;30.30;73.30;;;;;;5008868;28;20033;-83
2022/06/05 11:34:31;;;;;;;4.25;2.65;;;30.40;69.70;;;;;;4993671;28;20131;-84
2022/06/05 11:37:47;;;;;;;2.63;2.42;;;30.60;72.30;;;;;;4993099;28;20041;-85
2022/06/05 11:40:42;;;;;;;4.03;2.30;;;30.80;70.80;;;;;;4984146;28;20066;-85
2022/06/05 11:43:21;;;;;;;2.80;2.47;;;30.80;72.90;;;;;;4992958;28;20026;-84
2022/06/05 11:45:59;;;;;;;5.03;2.60;;;31.00;70.40;;;;;;4993568;28;20041;-85
2022/06/05 11:48:52;;;;;;;2.95;2.25;;;31.00;71.10;;;;;;4993763;28;20026;-84
2022/06/05 11:51:26;;;;;;;3.83;2.47;;;31.10;68.40;;;;;;5008244;28;20023;-84
2022/06/05 11:54:13;;;;;;;2.45;2.17;;;31.20;70.10;;;;;;5008498;28;20034;-84
2022/06/05 11:56:58;;;;;;;3.28;2.50;;;31.20;69.40;;;;;;5007760;28;20073;-84
2022/06/05 11:59:30;;;;;;;5.80;2.33;;;31.20;69.70;;;;;;4993642;28;20030;-84
2022/06/05 12:02:08;;;;;;;2.80;2.47;;;31.10;68.10;;;;;;4992837;28;20128;-85
2022/06/05 12:05:01;;;;;;;2.42;2.20;;;31.00;68.50;;;;;;5008350;28;20062;-84
2022/06/05 12:07:27;;;;;;;2.63;2.40;;;30.90;70.00;;;;;;5007592;28;20030;-83
2022/06/05 12:09:58;;;;;;;2.60;2.40;;;30.60;67.90;;;;;;5008131;28;20391;-84
2022/06/05 12:12:31;;;;;;;2.70;2.35;;;30.50;69.10;;;;;;4991026;28;20038;-84
2022/06/05 12:15:25;;;;;;;3.70;2.40;;;30.50;71.90;;;;;;4993374;28;20151;-84
2022/06/05 12:18:26;;;;;;;3.45;2.35;;;30.50;70.40;;;;;;4991533;28;20022;-85
2022/06/05 12:21:15;;;;;;;3.15;2.15;;;30.60;70.00;;;;;;4991936;28;20050;-84
2022/06/05 12:23:55;;;;;;;2.55;2.35;;;30.70;69.20;;;;;;4993204;28;20630;-85
2022/06/05 12:26:23;;;;;;;2.42;2.22;;;30.70;69.10;;;;;;4992807;28;20026;-84
2022/06/05 12:29:05;;;;;;;2.45;2.25;;;30.70;71.60;;;;;;5007826;28;20081;-85
2022/06/05 12:31:36;;;;;;;3.28;2.58;;;30.80;72.60;;;;;;4992989;28;20038;-86
2022/06/05 12:34:24;;;;;;;5.72;2.30;;;30.80;66.30;;;;;;4992735;28;20049;-85
2022/06/05 12:37:11;;;;;;;2.55;2.35;;;30.80;67.30;;;;;;4990766;28;20076;-84
2022/06/05 12:39:43;;;;;;;1.95;1.67;;;30.90;70.40;;;;;;4991668;28;20026;-84
2022/06/05 12:42:24;;;;;;;3.15;2.40;;;31.00;68.80;;;;;;4991061;28;20034;-84
2022/06/05 12:44:53;;;;;;;3.20;2.00;;;31.10;69.60;;;;;;4992853;28;20494;-85
2022/06/05 12:47:37;;;;;;;2.90;2.25;;;31.10;68.30;;;;;;4991119;28;20030;-85
2022/06/05 12:50:41;;;;;;;2.08;1.77;;;31.30;66.60;;;;;;5007364;28;20034;-87
2022/06/05 12:53:30;;;;;;;2.00;1.80;;;31.40;66.60;;;;;;4993270;28;20038;-86
2022/06/05 12:56:15;;;;;;;2.50;2.30;;;31.40;66.70;;;;;;5007122;28;20034;-85
2022/06/05 12:59:17;;;;;;;2.33;1.98;;;31.30;66.20;;;;;;4991177;28;20014;-85
2022/06/05 13:01:48;;;;;;;2.25;2.00;;;31.20;66.60;;;;;;4991055;28;20438;-85
2022/06/05 13:04:41;;;;;;;5.10;1.90;;;31.30;67.10;;;;;;4992352;28;20034;-86
2022/06/05 13:07:41;;;;;;;4.90;2.17;;;31.30;65.90;;;;;;4991755;28;20066;-86
2022/06/05 13:10:34;;;;;;;2.88;2.13;;;31.30;66.60;;;;;;4992462;28;20084;-86
2022/06/05 13:13:18;;;;;;;2.55;1.75;;;31.30;64.40;;;;;;4992233;28;20488;-85
2022/06/05 13:15:52;;;;;;;2.83;1.80;;;31.20;63.00;;;;;;4990073;28;20412;-84
2022/06/05 13:18:47;;;;;;;1.90;1.67;;;31.10;64.80;;;;;;4993014;28;20026;-85
2022/06/05 13:21:36;;;;;;;1.80;1.70;;;31.00;63.10;;;;;;4990636;28;20037;-83
2022/06/05 13:24:17;;;;;;;2.42;1.88;;;30.70;62.00;;;;;;4990643;28;20030;-84
2022/06/05 13:27:10;;;;;;;3.05;2.05;;;30.50;64.10;;;;;;4991439;28;20471;-84
2022/06/05 13:29:53;;;;;;;4.95;1.75;;;30.40;65.60;;;;;;5007924;28;20030;-85
2022/06/05 13:32:35;;;;;;;2.90;1.65;;;30.40;64.40;;;;;;5007444;28;20050;-84
2022/06/05 13:35:28;;;;;;;5.07;1.85;;;30.30;66.40;;;;;;4990744;28;20034;-84
2022/06/05 13:38:25;;;;;;;1.67;1.48;;;30.20;63.60;;;;;;4991094;28;20034;-85
2022/06/05 13:41:09;;;;;;;2.50;1.90;;;30.10;64.20;;;;;;4991091;28;20064;-86